Date,TemperatureHighF,TemperatureAvgF,TemperatureLowF,DewpointHighF,DewpointAvgF,DewpointLowF,HumidityHigh,HumidityAvg,HumidityLow,PressureMaxIn,PressureMinIn,WindSpeedMaxMPH,WindSpeedAvgMPH,GustSpeedMaxMPH,PrecipitationSumIn
2013-5-1,81.3,67.5,52.3,61.0,55.7,49.0,91,68,46,30.23,30.07,9,1,0,0.00
2013-5-2,78.8,67.2,54.4,58.0,52.1,47.0,80,60,44,30.25,30.13,13,0,0,0.00
2013-5-3,77.0,67.2,57.1,57.0,47.6,41.0,65,51,28,30.14,30.06,6,0,0,0.00
2013-5-4,69.8,63.5,55.6,49.0,45.2,40.0,73,53,36,30.12,30.06,6,1,0,0.00
2013-5-5,72.5,63.6,53.0,49.0,42.9,34.0,74,49,25,30.11,30.02,5,0,0,0.00
2013-5-6,74.6,63.2,50.6,53.0,45.8,40.0,72,54,41,30.07,29.97,6,0,0,0.00
2013-5-7,76.2,65.6,52.5,57.0,49.9,40.0,73,58,44,30.07,29.98,10,1,0,0.00
2013-5-8,79.1,67.5,56.3,56.0,52.2,48.0,79,60,42,30.01,29.92,10,1,0,0.00
2013-5-9,80.5,68.8,53.6,58.0,51.9,45.0,91,59,31,29.96,29.88,12,0,0,0.00
2013-5-10,68.7,58.4,43.0,61.0,52.1,39.0,92,80,52,29.89,29.73,15,3,0,0.30
2013-5-11,60.8,48.2,41.6,48.0,41.8,35.0,90,79,62,29.90,29.73,18,5,0,0.00
2013-5-12,47.7,42.3,38.7,35.0,31.6,27.0,80,67,53,30.10,29.87,20,8,0,0.00
2013-5-13,54.4,44.1,35.2,35.0,28.6,26.0,73,56,35,30.19,30.10,14,2,0,0.00
2013-5-14,73.7,55.4,42.6,51.0,42.2,34.0,74,62,45,30.13,29.74,7,0,0,0.00
2013-5-15,81.0,69.2,54.2,60.0,52.3,47.0,86,58,34,29.76,29.58,17,4,0,0.00
2013-5-16,81.4,68.0,53.2,53.0,48.3,41.0,83,52,32,30.02,29.76,7,1,0,0.00
2013-5-17,71.6,60.6,50.3,50.0,45.2,41.0,72,58,42,30.16,30.02,9,1,0,0.00
2013-5-18,80.3,66.8,56.1,52.0,48.1,45.0,68,53,33,30.15,30.03,10,1,0,0.00
2013-5-19,86.8,72.0,55.6,66.0,58.4,47.0,74,63,48,30.04,29.88,6,0,0,0.00
2013-5-20,89.3,75.9,63.4,73.0,65.6,60.0,89,71,46,29.91,29.75,8,1,0,0.00
2013-5-21,84.4,76.9,68.8,68.0,64.7,62.0,88,67,50,29.80,29.69,14,3,0,0.15
2013-5-22,80.5,70.3,64.6,66.0,63.6,61.0,90,80,55,29.72,29.59,21,4,0,0.09
2013-5-23,64.5,53.7,43.2,61.0,49.8,38.0,92,87,78,30.14,29.67,14,3,0,0.18
2013-5-24,55.1,46.8,39.5,40.0,36.7,33.0,81,69,52,30.38,30.14,13,3,0,0.00
2013-5-25,64.5,52.0,36.8,43.0,38.2,34.0,91,62,39,30.42,30.29,11,1,0,0.00
2013-5-26,69.1,55.8,40.7,45.0,39.3,36.0,92,58,34,30.36,30.24,6,1,0,0.00
2013-5-27,64.9,53.0,42.6,50.0,43.3,36.0,91,72,39,30.27,30.04,5,0,0,0.45
2013-5-28,72.5,60.9,52.1,69.0,58.8,50.0,93,92,86,30.03,29.81,6,1,0,1.00
2013-5-29,82.8,74.2,67.8,68.0,65.7,62.0,88,75,57,29.98,29.76,17,4,0,0.04
2013-5-30,86.7,72.5,64.4,74.0,66.9,62.0,92,83,59,30.05,29.95,26,1,0,0.69
2013-5-31,81.5,72.9,67.3,70.0,66.9,64.0,91,81,66,29.99,29.83,13,2,0,0.38